This is the latest recevied weather packets stored in our database for station/object OK5TVR-14. If no packets are shown the sender has not sent any weather packets the latest 10 day(s).
| Time | Temp. | Humidity | Pressure | Rain* | Wind** | Luminosity | Snow |
|---|---|---|---|---|---|---|---|
| 1788690082 | 20.56° C | 50% | 1022.8 hPa | 0 mm | - | 0 W/m² | - |
| 1788687382 | 19.44° C | 53% | 1023.4 hPa | 0 mm | - | 0 W/m² | - |
| 1788686482 | 18.89° C | 55% | 1023.5 hPa | 0 mm | - | 0 W/m² | - |
| 1788683782 | 17.78° C | 58% | 1023.6 hPa | 0 mm | - | 0 W/m² | - |
| 1788682882 | 17.22° C | 59% | 1023.6 hPa | 0 mm | - | 1 W/m² | - |
| 1788680182 | 15.56° C | 63% | 1023.6 hPa | 0 mm | - | 1 W/m² | - |
| 1788679282 | 15.56° C | 68% | 1023.4 hPa | 0 mm | - | 0 W/m² | - |
| 1788678382 | 15° C | 71% | 1023.4 hPa | 0 mm | - | 0 W/m² | - |
| 1788676582 | 13.33° C | 68% | 1023.3 hPa | 0 mm | - | 0 W/m² | - |
| 1788675683 | 13.33° C | 68% | 1023.3 hPa | 0 mm | - | 0 W/m² | - |
| 1788672982 | 12.22° C | 68% | 1023.1 hPa | 0 mm | - | 0 W/m² | - |
| 1788672082 | 12.22° C | 69% | 1023.1 hPa | 0 mm | - | 0 W/m² | - |
| 1788671182 | 12.22° C | 68% | 1022.9 hPa | 0 mm | - | 0 W/m² | - |
| 1788670282 | 12.22° C | 68% | 1022.9 hPa | 0 mm | - | 0 W/m² | - |
| 1788669382 | 12.22° C | 68% | 1022.8 hPa | 0 mm | - | 0 W/m² | - |
| 1788668482 | 12.22° C | 67% | 1022.7 hPa | 0 mm | - | 0 W/m² | - |
| 1788667582 | 12.78° C | 67% | 1022.6 hPa | 0 mm | - | 0 W/m² | - |
| 1788666682 | 12.78° C | 67% | 1022.5 hPa | 0 mm | - | 0 W/m² | - |
| 1788665782 | 12.78° C | 67% | 1022.5 hPa | 0 mm | - | 0 W/m² | - |
| 1788663982 | 12.78° C | 66% | 1022.1 hPa | 0 mm | - | 0 W/m² | - |
| 1788663082 | 13.33° C | 66% | 1021.9 hPa | 0 mm | - | 0 W/m² | - |
| 1788662182 | 13.33° C | 66% | 1021.9 hPa | 0 mm | - | 0 W/m² | - |
| 1788639682 | 17.78° C | 56% | 1019.1 hPa | 0 mm | - | 0 W/m² | - |
| 1788635722 | 19.44° C | 50% | 1018.1 hPa | 0 mm | - | 0 W/m² | - |
| 1788634822 | 20° C | 49% | 1017.9 hPa | 0 mm | - | 0 W/m² | - |
* Rain latest hour (hover to see other rain measurements)
** Current wind speed in m/s (hover to see current wind gust speed)